Gosford Narara Research, New South Wales

7:44 AM AEST on July 30, 2016 (GMT +1000)
Charli & Pea's Awesomest Weather | | Change Station

Elev 30 ft 33.41 °S, 151.35 °E | Updated 9 seconds ago

Clear
Clear
42.4 °F
Feels Like 42 °F
N
0.0
Wind Variable Wind from North
Gusts 0.0 mph

Today
High -- | Low -- °F
--% Chance of Precip.
Yesterday
High -- | Low -- °F
Precip. -- in
Pressure 30.21 in
Visibility 6.2 miles
Clouds
Windchill 42 °F
Dew Point 41 °F
Humidity 94%
Rainfall 0.00 in
Snow Depth Not available.
6:47 AM 5:14 PM
Waning Crescent, 19% visible
METAR YSRI 292130Z AUTO 00000KT 9999 // NCD 02/02 Q1023
Pressure 30.21 in
Visibility 6.2 miles
Clouds
Windchill 42 °F
Dew Point 41 °F
Humidity 94%
Rainfall 0.00 in
Snow Depth Not available.
6:47 AM 5:14 PM
Waning Crescent, 19% visible
METAR YSRI 292130Z AUTO 00000KT 9999 // NCD 02/02 Q1023

10-Day Weather Forecast

Almanac

Astronomy

Jul. 30, 2016 Rise Set
Actual Time
Civil Twilight
Nautical Twilight
Astronomical Twilight
Moon
Length of Visible Light
Length of Day
Tomorrow will be .
, % of the Moon is Illuminated

Today's Extremes

Country Highs Country Lows

Community

WunderPhotos

Upload Photos

1,928,423 photos uploaded!

WunderBlog® & News

Nearby

Air Quality

  Air Quality AQ Index Pollutant
Not available.

Snow Depth

Station Depth Elevation

Earthquake Activity

City Distance Mag. Time & Date
Minimum magnitude displayed is 2.5.

Coastal Water Temperatures

Place Temperature

Stations

Nearby Weather Stations

Station Location Temp. Windchill Dew Point Humidity Wind Precip. Elev Updated Type